sensor_id;sensor_type;location;lat;lon;timestamp;P1;durP1;ratioP1;P2;durP2;ratioP2
18905;SDS011;9585;51.018;4.282;2022-08-19T00:01:35;14.30;;;12.90;;
18905;SDS011;9585;51.018;4.282;2022-08-19T00:04:06;13.80;;;12.50;;
18905;SDS011;9585;51.018;4.282;2022-08-19T00:06:36;14.73;;;13.25;;
18905;SDS011;9585;51.018;4.282;2022-08-19T00:09:05;15.18;;;13.70;;
18905;SDS011;9585;51.018;4.282;2022-08-19T00:11:33;16.63;;;14.82;;
18905;SDS011;9585;51.018;4.282;2022-08-19T00:14:03;16.02;;;14.43;;
18905;SDS011;9585;51.018;4.282;2022-08-19T00:16:31;16.00;;;14.30;;
18905;SDS011;9585;51.018;4.282;2022-08-19T00:18:58;15.50;;;13.90;;
18905;SDS011;9585;51.018;4.282;2022-08-19T00:21:27;17.88;;;15.98;;
18905;SDS011;9585;51.018;4.282;2022-08-19T00:23:55;17.00;;;15.20;;
18905;SDS011;9585;51.018;4.282;2022-08-19T00:26:23;18.15;;;16.25;;
18905;SDS011;9585;51.018;4.282;2022-08-19T00:28:51;17.50;;;15.68;;
18905;SDS011;9585;51.018;4.282;2022-08-19T00:31:18;18.00;;;15.50;;
18905;SDS011;9585;51.018;4.282;2022-08-19T00:33:46;14.60;;;13.13;;
18905;SDS011;9585;51.018;4.282;2022-08-19T00:36:15;16.60;;;14.90;;
18905;SDS011;9585;51.018;4.282;2022-08-19T00:38:44;16.70;;;14.90;;
18905;SDS011;9585;51.018;4.282;2022-08-19T00:41:13;16.20;;;14.45;;
18905;SDS011;9585;51.018;4.282;2022-08-19T00:43:41;18.30;;;16.35;;
18905;SDS011;9585;51.018;4.282;2022-08-19T00:46:08;19.20;;;16.90;;
18905;SDS011;9585;51.018;4.282;2022-08-19T00:48:35;16.75;;;14.93;;
18905;SDS011;9585;51.018;4.282;2022-08-19T00:51:03;19.45;;;17.17;;
18905;SDS011;9585;51.018;4.282;2022-08-19T00:53:31;18.02;;;16.13;;
18905;SDS011;9585;51.018;4.282;2022-08-19T00:56:02;17.23;;;15.27;;
18905;SDS011;9585;51.018;4.282;2022-08-19T00:58:32;19.23;;;16.25;;
18905;SDS011;9585;51.018;4.282;2022-08-19T01:01:02;18.58;;;16.20;;
18905;SDS011;9585;51.018;4.282;2022-08-19T01:03:30;20.83;;;18.40;;
18905;SDS011;9585;51.018;4.282;2022-08-19T01:05:58;21.23;;;18.83;;
18905;SDS011;9585;51.018;4.282;2022-08-19T01:08:26;22.80;;;18.88;;
18905;SDS011;9585;51.018;4.282;2022-08-19T01:10:55;23.35;;;19.50;;
18905;SDS011;9585;51.018;4.282;2022-08-19T01:13:28;23.73;;;19.83;;
18905;SDS011;9585;51.018;4.282;2022-08-19T01:16:00;22.67;;;19.40;;
18905;SDS011;9585;51.018;4.282;2022-08-19T01:18:29;24.85;;;19.90;;
18905;SDS011;9585;51.018;4.282;2022-08-19T01:21:00;21.73;;;18.48;;
18905;SDS011;9585;51.018;4.282;2022-08-19T01:23:36;19.55;;;16.45;;
18905;SDS011;9585;51.018;4.282;2022-08-19T01:26:10;20.83;;;17.67;;
18905;SDS011;9585;51.018;4.282;2022-08-19T01:28:39;22.48;;;19.35;;
18905;SDS011;9585;51.018;4.282;2022-08-19T01:31:08;24.13;;;19.60;;
18905;SDS011;9585;51.018;4.282;2022-08-19T01:33:38;23.92;;;19.40;;
18905;SDS011;9585;51.018;4.282;2022-08-19T01:36:06;23.00;;;19.33;;
18905;SDS011;9585;51.018;4.282;2022-08-19T01:38:38;23.70;;;19.58;;
18905;SDS011;9585;51.018;4.282;2022-08-19T01:41:06;26.67;;;21.38;;
18905;SDS011;9585;51.018;4.282;2022-08-19T01:43:34;28.90;;;22.60;;
18905;SDS011;9585;51.018;4.282;2022-08-19T01:46:01;29.88;;;23.42;;
18905;SDS011;9585;51.018;4.282;2022-08-19T01:48:32;26.58;;;21.48;;
18905;SDS011;9585;51.018;4.282;2022-08-19T01:51:00;27.17;;;22.60;;
18905;SDS011;9585;51.018;4.282;2022-08-19T01:53:28;31.52;;;24.63;;
18905;SDS011;9585;51.018;4.282;2022-08-19T01:55:57;24.83;;;21.45;;
18905;SDS011;9585;51.018;4.282;2022-08-19T01:58:37;26.65;;;21.02;;
18905;SDS011;9585;51.018;4.282;2022-08-19T02:01:07;25.33;;;20.65;;
18905;SDS011;9585;51.018;4.282;2022-08-19T02:03:34;30.90;;;24.05;;
18905;SDS011;9585;51.018;4.282;2022-08-19T02:06:02;27.77;;;22.48;;
18905;SDS011;9585;51.018;4.282;2022-08-19T02:08:30;28.75;;;22.58;;
18905;SDS011;9585;51.018;4.282;2022-08-19T02:11:01;33.15;;;24.92;;
18905;SDS011;9585;51.018;4.282;2022-08-19T02:13:28;35.15;;;27.05;;
18905;SDS011;9585;51.018;4.282;2022-08-19T02:15:56;33.58;;;26.48;;
18905;SDS011;9585;51.018;4.282;2022-08-19T02:18:23;35.22;;;26.75;;
18905;SDS011;9585;51.018;4.282;2022-08-19T02:20:51;33.40;;;25.38;;
18905;SDS011;9585;51.018;4.282;2022-08-19T02:23:19;25.70;;;21.92;;
18905;SDS011;9585;51.018;4.282;2022-08-19T02:25:46;26.92;;;21.55;;
18905;SDS011;9585;51.018;4.282;2022-08-19T02:28:16;24.00;;;20.00;;
18905;SDS011;9585;51.018;4.282;2022-08-19T02:30:43;23.75;;;19.73;;
18905;SDS011;9585;51.018;4.282;2022-08-19T02:33:10;22.63;;;19.08;;
18905;SDS011;9585;51.018;4.282;2022-08-19T02:35:40;23.95;;;18.92;;
18905;SDS011;9585;51.018;4.282;2022-08-19T02:38:08;26.35;;;20.70;;
18905;SDS011;9585;51.018;4.282;2022-08-19T02:40:54;26.67;;;20.63;;
18905;SDS011;9585;51.018;4.282;2022-08-19T02:43:24;24.67;;;19.65;;
18905;SDS011;9585;51.018;4.282;2022-08-19T02:45:53;24.92;;;19.25;;
18905;SDS011;9585;51.018;4.282;2022-08-19T02:48:21;26.45;;;20.40;;
18905;SDS011;9585;51.018;4.282;2022-08-19T02:50:51;27.52;;;20.83;;
18905;SDS011;9585;51.018;4.282;2022-08-19T02:53:20;22.95;;;18.00;;
18905;SDS011;9585;51.018;4.282;2022-08-19T02:55:49;23.25;;;17.92;;
18905;SDS011;9585;51.018;4.282;2022-08-19T02:58:16;20.95;;;17.30;;
18905;SDS011;9585;51.018;4.282;2022-08-19T03:00:47;21.17;;;16.90;;
18905;SDS011;9585;51.018;4.282;2022-08-19T03:03:15;33.92;;;23.90;;
18905;SDS011;9585;51.018;4.282;2022-08-19T03:05:44;24.98;;;20.05;;
18905;SDS011;9585;51.018;4.282;2022-08-19T03:08:12;25.13;;;19.10;;
18905;SDS011;9585;51.018;4.282;2022-08-19T03:10:40;21.13;;;16.83;;
18905;SDS011;9585;51.018;4.282;2022-08-19T03:13:10;26.98;;;19.35;;
18905;SDS011;9585;51.018;4.282;2022-08-19T03:15:39;32.65;;;23.20;;
18905;SDS011;9585;51.018;4.282;2022-08-19T03:18:09;29.42;;;21.90;;
18905;SDS011;9585;51.018;4.282;2022-08-19T03:20:40;27.50;;;21.80;;
18905;SDS011;9585;51.018;4.282;2022-08-19T03:23:09;24.02;;;18.38;;
18905;SDS011;9585;51.018;4.282;2022-08-19T03:25:38;22.65;;;17.73;;
18905;SDS011;9585;51.018;4.282;2022-08-19T03:28:08;23.70;;;18.50;;
18905;SDS011;9585;51.018;4.282;2022-08-19T03:30:37;24.23;;;18.38;;
18905;SDS011;9585;51.018;4.282;2022-08-19T03:33:06;23.50;;;17.63;;
18905;SDS011;9585;51.018;4.282;2022-08-19T03:35:35;24.83;;;18.80;;
18905;SDS011;9585;51.018;4.282;2022-08-19T03:38:02;25.13;;;18.45;;
18905;SDS011;9585;51.018;4.282;2022-08-19T03:40:30;20.92;;;15.98;;
18905;SDS011;9585;51.018;4.282;2022-08-19T03:43:00;29.45;;;20.30;;
18905;SDS011;9585;51.018;4.282;2022-08-19T03:45:27;23.83;;;18.08;;
18905;SDS011;9585;51.018;4.282;2022-08-19T03:47:54;25.23;;;18.67;;
18905;SDS011;9585;51.018;4.282;2022-08-19T03:50:22;25.38;;;20.10;;
18905;SDS011;9585;51.018;4.282;2022-08-19T03:52:51;27.33;;;20.15;;
18905;SDS011;9585;51.018;4.282;2022-08-19T03:55:18;26.73;;;19.83;;
18905;SDS011;9585;51.018;4.282;2022-08-19T03:57:45;20.27;;;15.90;;
18905;SDS011;9585;51.018;4.282;2022-08-19T04:00:14;32.63;;;20.98;;
18905;SDS011;9585;51.018;4.282;2022-08-19T04:02:41;30.75;;;21.17;;
18905;SDS011;9585;51.018;4.282;2022-08-19T04:05:09;26.48;;;19.95;;
18905;SDS011;9585;51.018;4.282;2022-08-19T04:07:36;26.50;;;19.63;;
18905;SDS011;9585;51.018;4.282;2022-08-19T04:10:06;28.05;;;19.27;;
18905;SDS011;9585;51.018;4.282;2022-08-19T04:12:34;24.50;;;17.95;;
18905;SDS011;9585;51.018;4.282;2022-08-19T04:15:01;24.60;;;18.10;;
18905;SDS011;9585;51.018;4.282;2022-08-19T04:17:31;23.23;;;17.38;;
18905;SDS011;9585;51.018;4.282;2022-08-19T04:19:59;24.27;;;17.52;;
18905;SDS011;9585;51.018;4.282;2022-08-19T04:22:26;20.65;;;15.82;;
18905;SDS011;9585;51.018;4.282;2022-08-19T04:24:53;18.38;;;14.98;;
18905;SDS011;9585;51.018;4.282;2022-08-19T04:27:23;19.48;;;15.45;;
18905;SDS011;9585;51.018;4.282;2022-08-19T04:29:50;17.02;;;13.50;;
18905;SDS011;9585;51.018;4.282;2022-08-19T04:32:19;20.90;;;15.60;;
18905;SDS011;9585;51.018;4.282;2022-08-19T04:34:47;20.00;;;14.38;;
18905;SDS011;9585;51.018;4.282;2022-08-19T04:37:15;24.90;;;17.60;;
18905;SDS011;9585;51.018;4.282;2022-08-19T04:39:42;21.83;;;16.13;;
18905;SDS011;9585;51.018;4.282;2022-08-19T04:42:28;25.08;;;18.90;;
18905;SDS011;9585;51.018;4.282;2022-08-19T04:45:08;27.38;;;19.42;;
18905;SDS011;9585;51.018;4.282;2022-08-19T04:47:36;21.52;;;15.52;;
18905;SDS011;9585;51.018;4.282;2022-08-19T04:50:05;23.23;;;17.10;;
18905;SDS011;9585;51.018;4.282;2022-08-19T04:52:35;22.15;;;15.90;;
18905;SDS011;9585;51.018;4.282;2022-08-19T04:55:02;28.35;;;18.90;;
18905;SDS011;9585;51.018;4.282;2022-08-19T04:57:33;20.75;;;15.02;;
18905;SDS011;9585;51.018;4.282;2022-08-19T05:00:00;18.80;;;14.73;;
18905;SDS011;9585;51.018;4.282;2022-08-19T05:02:27;19.38;;;14.40;;
18905;SDS011;9585;51.018;4.282;2022-08-19T05:04:56;14.90;;;12.02;;
18905;SDS011;9585;51.018;4.282;2022-08-19T05:07:25;14.30;;;11.20;;
18905;SDS011;9585;51.018;4.282;2022-08-19T05:09:52;19.83;;;14.32;;
18905;SDS011;9585;51.018;4.282;2022-08-19T05:12:20;14.65;;;11.57;;
18905;SDS011;9585;51.018;4.282;2022-08-19T05:14:49;20.35;;;14.70;;
18905;SDS011;9585;51.018;4.282;2022-08-19T05:17:17;20.45;;;14.90;;
18905;SDS011;9585;51.018;4.282;2022-08-19T05:19:44;17.20;;;13.50;;
18905;SDS011;9585;51.018;4.282;2022-08-19T05:22:28;14.80;;;11.85;;
18905;SDS011;9585;51.018;4.282;2022-08-19T05:25:00;12.30;;;9.55;;
18905;SDS011;9585;51.018;4.282;2022-08-19T05:27:32;14.32;;;12.07;;
18905;SDS011;9585;51.018;4.282;2022-08-19T05:30:02;15.10;;;11.73;;
18905;SDS011;9585;51.018;4.282;2022-08-19T05:32:30;13.30;;;11.00;;
18905;SDS011;9585;51.018;4.282;2022-08-19T05:34:57;15.63;;;11.85;;
18905;SDS011;9585;51.018;4.282;2022-08-19T05:37:25;13.00;;;10.88;;
18905;SDS011;9585;51.018;4.282;2022-08-19T05:39:53;15.23;;;12.85;;
18905;SDS011;9585;51.018;4.282;2022-08-19T05:42:20;16.13;;;12.90;;
18905;SDS011;9585;51.018;4.282;2022-08-19T05:44:48;15.45;;;12.50;;
18905;SDS011;9585;51.018;4.282;2022-08-19T05:47:18;13.10;;;11.73;;
18905;SDS011;9585;51.018;4.282;2022-08-19T05:49:46;15.15;;;11.30;;
18905;SDS011;9585;51.018;4.282;2022-08-19T05:52:16;17.70;;;13.45;;
18905;SDS011;9585;51.018;4.282;2022-08-19T05:54:44;13.85;;;11.10;;
18905;SDS011;9585;51.018;4.282;2022-08-19T05:57:12;15.98;;;11.73;;
18905;SDS011;9585;51.018;4.282;2022-08-19T05:59:40;13.80;;;10.82;;
18905;SDS011;9585;51.018;4.282;2022-08-19T06:02:11;17.08;;;11.30;;
18905;SDS011;9585;51.018;4.282;2022-08-19T06:04:40;12.70;;;10.18;;
18905;SDS011;9585;51.018;4.282;2022-08-19T06:07:08;13.30;;;9.25;;
18905;SDS011;9585;51.018;4.282;2022-08-19T06:09:36;14.05;;;10.20;;
18905;SDS011;9585;51.018;4.282;2022-08-19T06:12:03;12.30;;;9.77;;
18905;SDS011;9585;51.018;4.282;2022-08-19T06:14:32;10.85;;;8.30;;
18905;SDS011;9585;51.018;4.282;2022-08-19T06:17:01;10.05;;;7.63;;
18905;SDS011;9585;51.018;4.282;2022-08-19T06:19:29;13.88;;;9.50;;
18905;SDS011;9585;51.018;4.282;2022-08-19T06:21:59;10.95;;;8.10;;
18905;SDS011;9585;51.018;4.282;2022-08-19T06:24:27;16.00;;;10.27;;
18905;SDS011;9585;51.018;4.282;2022-08-19T06:26:57;12.07;;;9.32;;
18905;SDS011;9585;51.018;4.282;2022-08-19T06:29:25;9.55;;;7.97;;
18905;SDS011;9585;51.018;4.282;2022-08-19T06:31:56;10.88;;;8.10;;
18905;SDS011;9585;51.018;4.282;2022-08-19T06:34:25;12.20;;;9.45;;
18905;SDS011;9585;51.018;4.282;2022-08-19T06:36:54;10.05;;;8.73;;
18905;SDS011;9585;51.018;4.282;2022-08-19T06:39:26;9.23;;;7.15;;
18905;SDS011;9585;51.018;4.282;2022-08-19T06:41:55;10.15;;;7.95;;
18905;SDS011;9585;51.018;4.282;2022-08-19T06:44:26;11.52;;;7.78;;
18905;SDS011;9585;51.018;4.282;2022-08-19T06:46:56;13.85;;;8.88;;
18905;SDS011;9585;51.018;4.282;2022-08-19T06:49:23;10.52;;;8.38;;
18905;SDS011;9585;51.018;4.282;2022-08-19T06:51:56;8.20;;;6.72;;
18905;SDS011;9585;51.018;4.282;2022-08-19T06:54:26;11.98;;;8.50;;
18905;SDS011;9585;51.018;4.282;2022-08-19T06:56:54;11.18;;;9.02;;
18905;SDS011;9585;51.018;4.282;2022-08-19T06:59:22;11.25;;;8.95;;
18905;SDS011;9585;51.018;4.282;2022-08-19T07:01:54;13.73;;;10.07;;
18905;SDS011;9585;51.018;4.282;2022-08-19T07:04:24;12.13;;;8.95;;
18905;SDS011;9585;51.018;4.282;2022-08-19T07:06:56;13.90;;;9.38;;
18905;SDS011;9585;51.018;4.282;2022-08-19T07:09:26;11.98;;;9.05;;
18905;SDS011;9585;51.018;4.282;2022-08-19T07:11:54;14.95;;;9.68;;
18905;SDS011;9585;51.018;4.282;2022-08-19T07:14:23;11.00;;;8.30;;
18905;SDS011;9585;51.018;4.282;2022-08-19T07:16:53;9.98;;;8.27;;
18905;SDS011;9585;51.018;4.282;2022-08-19T07:19:22;11.38;;;8.45;;
18905;SDS011;9585;51.018;4.282;2022-08-19T07:21:52;10.90;;;8.02;;
18905;SDS011;9585;51.018;4.282;2022-08-19T07:24:21;9.68;;;7.63;;
18905;SDS011;9585;51.018;4.282;2022-08-19T07:26:52;10.70;;;8.48;;
18905;SDS011;9585;51.018;4.282;2022-08-19T07:29:22;8.63;;;7.25;;
18905;SDS011;9585;51.018;4.282;2022-08-19T07:31:49;9.80;;;7.40;;
18905;SDS011;9585;51.018;4.282;2022-08-19T07:34:17;12.32;;;9.10;;
18905;SDS011;9585;51.018;4.282;2022-08-19T07:36:44;9.35;;;7.43;;
18905;SDS011;9585;51.018;4.282;2022-08-19T07:39:16;11.48;;;9.10;;
18905;SDS011;9585;51.018;4.282;2022-08-19T07:41:46;8.70;;;6.75;;
18905;SDS011;9585;51.018;4.282;2022-08-19T07:44:17;9.23;;;7.25;;
18905;SDS011;9585;51.018;4.282;2022-08-19T07:46:46;10.30;;;8.07;;
18905;SDS011;9585;51.018;4.282;2022-08-19T07:49:15;7.28;;;5.85;;
18905;SDS011;9585;51.018;4.282;2022-08-19T07:51:44;8.38;;;5.50;;
18905;SDS011;9585;51.018;4.282;2022-08-19T07:54:13;7.43;;;5.15;;
18905;SDS011;9585;51.018;4.282;2022-08-19T07:56:41;6.20;;;4.78;;
18905;SDS011;9585;51.018;4.282;2022-08-19T07:59:09;6.57;;;4.35;;
18905;SDS011;9585;51.018;4.282;2022-08-19T08:01:40;6.05;;;4.57;;
18905;SDS011;9585;51.018;4.282;2022-08-19T08:04:08;5.95;;;4.47;;
18905;SDS011;9585;51.018;4.282;2022-08-19T08:06:54;5.05;;;4.22;;
18905;SDS011;9585;51.018;4.282;2022-08-19T08:09:40;7.70;;;5.57;;
18905;SDS011;9585;51.018;4.282;2022-08-19T08:12:12;5.45;;;4.20;;
18905;SDS011;9585;51.018;4.282;2022-08-19T08:14:42;5.65;;;4.82;;
18905;SDS011;9585;51.018;4.282;2022-08-19T08:17:14;7.40;;;5.50;;
18905;SDS011;9585;51.018;4.282;2022-08-19T08:19:42;6.25;;;5.07;;
18905;SDS011;9585;51.018;4.282;2022-08-19T08:22:10;5.88;;;4.72;;
18905;SDS011;9585;51.018;4.282;2022-08-19T08:25:00;5.72;;;4.00;;
18905;SDS011;9585;51.018;4.282;2022-08-19T08:27:29;8.10;;;5.93;;
18905;SDS011;9585;51.018;4.282;2022-08-19T08:29:56;6.47;;;5.35;;
18905;SDS011;9585;51.018;4.282;2022-08-19T08:32:25;7.93;;;5.80;;
18905;SDS011;9585;51.018;4.282;2022-08-19T08:34:52;7.35;;;4.63;;
18905;SDS011;9585;51.018;4.282;2022-08-19T08:37:20;8.80;;;5.47;;
18905;SDS011;9585;51.018;4.282;2022-08-19T08:39:48;9.38;;;5.55;;
18905;SDS011;9585;51.018;4.282;2022-08-19T08:42:17;5.72;;;4.10;;
18905;SDS011;9585;51.018;4.282;2022-08-19T08:44:52;8.07;;;5.78;;
18905;SDS011;9585;51.018;4.282;2022-08-19T08:47:27;6.68;;;5.50;;
18905;SDS011;9585;51.018;4.282;2022-08-19T08:50:02;8.15;;;5.50;;
18905;SDS011;9585;51.018;4.282;2022-08-19T08:52:32;7.05;;;5.47;;
18905;SDS011;9585;51.018;4.282;2022-08-19T08:55:03;7.88;;;5.82;;
18905;SDS011;9585;51.018;4.282;2022-08-19T08:57:35;6.95;;;4.65;;
18905;SDS011;9585;51.018;4.282;2022-08-19T09:00:06;6.30;;;4.85;;
18905;SDS011;9585;51.018;4.282;2022-08-19T09:02:40;9.35;;;6.65;;
18905;SDS011;9585;51.018;4.282;2022-08-19T09:05:08;10.18;;;6.85;;
18905;SDS011;9585;51.018;4.282;2022-08-19T09:07:39;7.75;;;5.95;;
18905;SDS011;9585;51.018;4.282;2022-08-19T09:10:15;9.63;;;6.43;;
18905;SDS011;9585;51.018;4.282;2022-08-19T09:12:51;7.50;;;5.70;;
18905;SDS011;9585;51.018;4.282;2022-08-19T09:15:32;7.07;;;5.68;;
18905;SDS011;9585;51.018;4.282;2022-08-19T09:18:07;10.10;;;6.25;;
18905;SDS011;9585;51.018;4.282;2022-08-19T09:20:35;7.68;;;5.70;;
18905;SDS011;9585;51.018;4.282;2022-08-19T09:23:03;7.90;;;5.13;;
18905;SDS011;9585;51.018;4.282;2022-08-19T09:25:35;6.82;;;5.75;;
18905;SDS011;9585;51.018;4.282;2022-08-19T09:28:05;10.75;;;5.82;;
18905;SDS011;9585;51.018;4.282;2022-08-19T09:30:34;6.70;;;5.35;;
18905;SDS011;9585;51.018;4.282;2022-08-19T09:33:07;7.75;;;5.53;;
18905;SDS011;9585;51.018;4.282;2022-08-19T09:35:34;8.82;;;6.25;;
18905;SDS011;9585;51.018;4.282;2022-08-19T09:38:02;6.32;;;5.18;;
18905;SDS011;9585;51.018;4.282;2022-08-19T09:40:29;9.55;;;5.72;;
18905;SDS011;9585;51.018;4.282;2022-08-19T09:42:59;7.80;;;5.50;;
18905;SDS011;9585;51.018;4.282;2022-08-19T09:45:27;8.18;;;5.72;;
18905;SDS011;9585;51.018;4.282;2022-08-19T09:47:55;9.38;;;6.28;;
18905;SDS011;9585;51.018;4.282;2022-08-19T09:50:24;9.68;;;6.30;;
18905;SDS011;9585;51.018;4.282;2022-08-19T09:52:52;8.88;;;5.47;;
18905;SDS011;9585;51.018;4.282;2022-08-19T09:55:20;6.57;;;5.47;;
18905;SDS011;9585;51.018;4.282;2022-08-19T09:57:47;8.60;;;6.10;;
18905;SDS011;9585;51.018;4.282;2022-08-19T10:00:14;6.10;;;5.25;;
18905;SDS011;9585;51.018;4.282;2022-08-19T10:02:42;8.57;;;6.07;;
18905;SDS011;9585;51.018;4.282;2022-08-19T10:05:09;8.50;;;5.50;;
18905;SDS011;9585;51.018;4.282;2022-08-19T10:07:55;10.05;;;7.03;;
18905;SDS011;9585;51.018;4.282;2022-08-19T10:10:25;10.60;;;5.70;;
18905;SDS011;9585;51.018;4.282;2022-08-19T10:12:53;12.88;;;7.40;;
18905;SDS011;9585;51.018;4.282;2022-08-19T10:15:23;8.15;;;5.57;;
18905;SDS011;9585;51.018;4.282;2022-08-19T10:17:52;8.23;;;6.13;;
18905;SDS011;9585;51.018;4.282;2022-08-19T10:20:20;6.70;;;5.72;;
18905;SDS011;9585;51.018;4.282;2022-08-19T10:22:49;6.15;;;5.53;;
18905;SDS011;9585;51.018;4.282;2022-08-19T10:25:18;7.95;;;6.18;;
18905;SDS011;9585;51.018;4.282;2022-08-19T10:27:46;9.02;;;5.85;;
18905;SDS011;9585;51.018;4.282;2022-08-19T10:30:13;6.15;;;5.28;;
18905;SDS011;9585;51.018;4.282;2022-08-19T10:32:41;8.25;;;5.75;;
18905;SDS011;9585;51.018;4.282;2022-08-19T10:35:09;6.65;;;5.43;;
18905;SDS011;9585;51.018;4.282;2022-08-19T10:37:37;5.90;;;5.03;;
18905;SDS011;9585;51.018;4.282;2022-08-19T10:40:08;9.02;;;5.82;;
18905;SDS011;9585;51.018;4.282;2022-08-19T10:42:38;6.78;;;5.15;;
18905;SDS011;9585;51.018;4.282;2022-08-19T10:45:06;7.75;;;5.38;;
18905;SDS011;9585;51.018;4.282;2022-08-19T10:47:34;7.82;;;5.25;;
18905;SDS011;9585;51.018;4.282;2022-08-19T10:50:02;5.75;;;5.00;;
18905;SDS011;9585;51.018;4.282;2022-08-19T10:52:50;7.30;;;5.97;;
18905;SDS011;9585;51.018;4.282;2022-08-19T10:55:18;5.60;;;4.85;;
18905;SDS011;9585;51.018;4.282;2022-08-19T10:58:12;5.32;;;4.57;;
18905;SDS011;9585;51.018;4.282;2022-08-19T11:00:42;5.40;;;3.80;;
18905;SDS011;9585;51.018;4.282;2022-08-19T11:03:17;4.07;;;3.45;;
18905;SDS011;9585;51.018;4.282;2022-08-19T11:05:44;4.30;;;3.40;;
18905;SDS011;9585;51.018;4.282;2022-08-19T11:08:11;3.72;;;3.30;;
18905;SDS011;9585;51.018;4.282;2022-08-19T11:10:40;4.15;;;3.75;;
18905;SDS011;9585;51.018;4.282;2022-08-19T11:13:09;4.00;;;2.97;;
18905;SDS011;9585;51.018;4.282;2022-08-19T11:15:46;4.40;;;3.45;;
18905;SDS011;9585;51.018;4.282;2022-08-19T11:18:21;4.38;;;3.38;;
18905;SDS011;9585;51.018;4.282;2022-08-19T11:20:49;5.93;;;4.57;;
18905;SDS011;9585;51.018;4.282;2022-08-19T11:23:16;3.20;;;2.90;;
18905;SDS011;9585;51.018;4.282;2022-08-19T11:25:44;5.00;;;3.63;;
18905;SDS011;9585;51.018;4.282;2022-08-19T11:28:12;5.35;;;4.10;;
18905;SDS011;9585;51.018;4.282;2022-08-19T11:30:40;2.85;;;2.60;;
18905;SDS011;9585;51.018;4.282;2022-08-19T11:33:09;5.05;;;3.85;;
18905;SDS011;9585;51.018;4.282;2022-08-19T11:35:38;3.15;;;2.75;;
18905;SDS011;9585;51.018;4.282;2022-08-19T11:38:09;4.05;;;2.95;;
18905;SDS011;9585;51.018;4.282;2022-08-19T11:40:39;3.83;;;3.17;;
18905;SDS011;9585;51.018;4.282;2022-08-19T11:43:07;3.47;;;2.72;;
18905;SDS011;9585;51.018;4.282;2022-08-19T11:45:34;5.47;;;3.03;;
18905;SDS011;9585;51.018;4.282;2022-08-19T11:48:02;3.67;;;2.67;;
18905;SDS011;9585;51.018;4.282;2022-08-19T11:50:31;3.97;;;2.50;;
18905;SDS011;9585;51.018;4.282;2022-08-19T11:52:59;3.72;;;2.60;;
18905;SDS011;9585;51.018;4.282;2022-08-19T11:55:26;3.65;;;2.83;;
18905;SDS011;9585;51.018;4.282;2022-08-19T11:57:54;2.80;;;2.20;;
18905;SDS011;9585;51.018;4.282;2022-08-19T12:00:21;3.42;;;2.13;;
18905;SDS011;9585;51.018;4.282;2022-08-19T12:02:49;3.13;;;2.00;;
18905;SDS011;9585;51.018;4.282;2022-08-19T12:05:16;2.78;;;2.45;;
18905;SDS011;9585;51.018;4.282;2022-08-19T12:07:45;2.90;;;2.17;;
18905;SDS011;9585;51.018;4.282;2022-08-19T12:10:12;4.10;;;2.97;;
18905;SDS011;9585;51.018;4.282;2022-08-19T12:12:40;4.13;;;2.58;;
18905;SDS011;9585;51.018;4.282;2022-08-19T12:15:11;2.53;;;2.33;;
18905;SDS011;9585;51.018;4.282;2022-08-19T12:17:39;2.05;;;1.95;;
18905;SDS011;9585;51.018;4.282;2022-08-19T12:20:07;2.10;;;1.70;;
18905;SDS011;9585;51.018;4.282;2022-08-19T12:22:37;2.10;;;1.90;;
18905;SDS011;9585;51.018;4.282;2022-08-19T12:25:08;3.10;;;2.75;;
18905;SDS011;9585;51.018;4.282;2022-08-19T12:27:36;3.97;;;2.88;;
18905;SDS011;9585;51.018;4.282;2022-08-19T12:30:04;4.63;;;4.07;;
18905;SDS011;9585;51.018;4.282;2022-08-19T12:32:33;5.32;;;3.75;;
18905;SDS011;9585;51.018;4.282;2022-08-19T12:35:02;5.13;;;3.42;;
18905;SDS011;9585;51.018;4.282;2022-08-19T12:37:39;6.93;;;4.40;;
18905;SDS011;9585;51.018;4.282;2022-08-19T12:40:11;6.38;;;4.90;;
18905;SDS011;9585;51.018;4.282;2022-08-19T12:42:39;4.78;;;4.38;;
18905;SDS011;9585;51.018;4.282;2022-08-19T12:45:08;5.00;;;4.50;;
18905;SDS011;9585;51.018;4.282;2022-08-19T12:47:35;4.57;;;4.13;;
18905;SDS011;9585;51.018;4.282;2022-08-19T12:50:03;4.13;;;3.83;;
18905;SDS011;9585;51.018;4.282;2022-08-19T12:52:34;4.45;;;4.05;;
18905;SDS011;9585;51.018;4.282;2022-08-19T12:55:02;5.20;;;3.53;;
18905;SDS011;9585;51.018;4.282;2022-08-19T12:57:33;3.90;;;3.50;;
18905;SDS011;9585;51.018;4.282;2022-08-19T13:00:01;5.50;;;4.10;;
18905;SDS011;9585;51.018;4.282;2022-08-19T13:02:33;3.30;;;3.00;;
18905;SDS011;9585;51.018;4.282;2022-08-19T13:05:01;3.75;;;3.33;;
18905;SDS011;9585;51.018;4.282;2022-08-19T13:07:31;3.85;;;3.00;;
18905;SDS011;9585;51.018;4.282;2022-08-19T13:09:58;3.75;;;3.42;;
18905;SDS011;9585;51.018;4.282;2022-08-19T13:12:26;3.13;;;2.83;;
18905;SDS011;9585;51.018;4.282;2022-08-19T13:14:55;2.95;;;2.70;;
18905;SDS011;9585;51.018;4.282;2022-08-19T13:17:25;3.13;;;2.83;;
18905;SDS011;9585;51.018;4.282;2022-08-19T13:19:52;4.28;;;2.97;;
18905;SDS011;9585;51.018;4.282;2022-08-19T13:22:30;3.00;;;2.78;;
18905;SDS011;9585;51.018;4.282;2022-08-19T13:25:00;3.20;;;2.75;;
18905;SDS011;9585;51.018;4.282;2022-08-19T13:27:28;3.13;;;2.58;;
18905;SDS011;9585;51.018;4.282;2022-08-19T13:30:00;3.28;;;2.67;;
18905;SDS011;9585;51.018;4.282;2022-08-19T13:32:52;2.72;;;2.35;;
18905;SDS011;9585;51.018;4.282;2022-08-19T13:35:40;2.35;;;2.15;;
18905;SDS011;9585;51.018;4.282;2022-08-19T13:38:12;2.60;;;2.40;;
18905;SDS011;9585;51.018;4.282;2022-08-19T13:40:41;2.55;;;2.35;;
18905;SDS011;9585;51.018;4.282;2022-08-19T13:43:14;2.88;;;2.53;;
18905;SDS011;9585;51.018;4.282;2022-08-19T13:45:44;2.42;;;2.22;;
18905;SDS011;9585;51.018;4.282;2022-08-19T13:48:11;2.97;;;2.67;;
18905;SDS011;9585;51.018;4.282;2022-08-19T13:50:41;3.20;;;2.28;;
18905;SDS011;9585;51.018;4.282;2022-08-19T13:53:11;2.95;;;2.70;;
18905;SDS011;9585;51.018;4.282;2022-08-19T13:55:39;2.55;;;2.03;;
18905;SDS011;9585;51.018;4.282;2022-08-19T13:58:19;2.15;;;1.60;;
18905;SDS011;9585;51.018;4.282;2022-08-19T14:00:50;1.90;;;1.30;;
18905;SDS011;9585;51.018;4.282;2022-08-19T14:03:18;2.30;;;1.40;;
18905;SDS011;9585;51.018;4.282;2022-08-19T14:05:45;1.52;;;1.40;;
18905;SDS011;9585;51.018;4.282;2022-08-19T14:08:13;3.28;;;1.60;;
18905;SDS011;9585;51.018;4.282;2022-08-19T14:10:41;3.20;;;1.50;;
18905;SDS011;9585;51.018;4.282;2022-08-19T14:13:13;1.48;;;0.90;;
18905;SDS011;9585;51.018;4.282;2022-08-19T14:15:42;1.27;;;0.70;;
18905;SDS011;9585;51.018;4.282;2022-08-19T14:18:11;1.60;;;0.98;;
18905;SDS011;9585;51.018;4.282;2022-08-19T14:20:39;1.55;;;1.00;;
18905;SDS011;9585;51.018;4.282;2022-08-19T14:23:06;1.33;;;1.20;;
18905;SDS011;9585;51.018;4.282;2022-08-19T14:25:34;1.38;;;1.20;;
18905;SDS011;9585;51.018;4.282;2022-08-19T14:28:01;1.52;;;1.25;;
18905;SDS011;9585;51.018;4.282;2022-08-19T14:30:30;1.83;;;1.20;;
18905;SDS011;9585;51.018;4.282;2022-08-19T14:32:59;2.65;;;1.40;;
18905;SDS011;9585;51.018;4.282;2022-08-19T14:35:30;1.85;;;1.38;;
18905;SDS011;9585;51.018;4.282;2022-08-19T14:37:59;3.90;;;1.60;;
18905;SDS011;9585;51.018;4.282;2022-08-19T14:40:28;1.50;;;1.02;;
18905;SDS011;9585;51.018;4.282;2022-08-19T14:42:56;2.17;;;0.90;;
18905;SDS011;9585;51.018;4.282;2022-08-19T14:45:29;3.03;;;0.90;;
18905;SDS011;9585;51.018;4.282;2022-08-19T14:47:57;1.67;;;0.80;;
18905;SDS011;9585;51.018;4.282;2022-08-19T14:50:25;2.25;;;1.00;;
18905;SDS011;9585;51.018;4.282;2022-08-19T14:52:59;1.23;;;0.73;;
18905;SDS011;9585;51.018;4.282;2022-08-19T14:55:28;1.33;;;1.00;;
18905;SDS011;9585;51.018;4.282;2022-08-19T14:57:56;1.45;;;1.00;;
18905;SDS011;9585;51.018;4.282;2022-08-19T15:00:24;1.73;;;1.40;;
18905;SDS011;9585;51.018;4.282;2022-08-19T15:02:52;3.28;;;1.42;;